Tarrytown, Georgia
Current Conditions -  °F | °C
As of 8:35 PM on Tuesday 25 Nov 2014 (Local Time) from KVDI Reporting Station
Light Rain Light Rain  
Wind Chill: 54°   Ceiling: 2500
Heat Index: 54°   Visibility: 10mi
Dew Point: 54°   Wind: 3mph
Humidity: 100%   Direction: 360°N
Pressure: 30.01"   Gusts: NA
Location:  32.32°N, 82.56°W
Report Text: KVDI 260135Z AUTO 36003KT 10SM -RA SCT015 BKN025 OVC060 12/12 A3001 RMK AO2
Loading
Personal Weather Stations






























Interactive Weather Map New forecast layout! Learn more

10-Day Weather Forecast

Advertisements
Track Severe Weather on mobile